createdAt,value
2018-08-10T00:00:15.673Z,7.53
2018-08-10T00:02:44.961Z,7.93
2018-08-10T00:05:14.081Z,7.17
2018-08-10T00:07:43.219Z,6.33
2018-08-10T00:10:13.553Z,7.43
2018-08-10T00:12:42.609Z,7.07
2018-08-10T00:15:12.597Z,7.73
2018-08-10T00:17:42.001Z,7.23
2018-08-10T00:20:14.055Z,7.70
2018-08-10T00:22:43.497Z,7.60
2018-08-10T00:25:16.151Z,7.23
2018-08-10T00:27:45.229Z,6.87
2018-08-10T00:30:15.894Z,7.20
2018-08-10T00:32:46.035Z,5.37
2018-08-10T00:35:15.259Z,7.03
2018-08-10T00:37:45.057Z,7.30
2018-08-10T00:40:16.249Z,7.90
2018-08-10T00:42:45.873Z,4.53
2018-08-10T00:45:15.883Z,5.57
2018-08-10T00:47:45.393Z,6.07
2018-08-10T00:50:15.629Z,6.17
2018-08-10T00:52:45.646Z,5.73
2018-08-10T00:55:16.010Z,6.53
2018-08-10T00:57:46.065Z,5.70
2018-08-10T01:00:19.421Z,6.50
2018-08-10T01:02:48.451Z,7.10
2018-08-10T01:05:17.525Z,6.90
2018-08-10T01:07:46.616Z,8.90
2018-08-10T01:10:17.174Z,5.13
2018-08-10T01:12:46.271Z,6.63
2018-08-10T01:15:16.488Z,6.23
2018-08-10T01:17:45.954Z,6.00
2018-08-10T01:20:19.139Z,8.97
2018-08-10T01:22:53.761Z,7.93
2018-08-10T01:25:24.209Z,6.33
2018-08-10T01:27:55.104Z,7.77
2018-08-10T01:30:24.976Z,7.00
2018-08-10T01:32:54.310Z,6.93
2018-08-10T01:35:24.127Z,9.50
2018-08-10T01:37:53.618Z,7.73
2018-08-10T01:40:22.754Z,7.47
2018-08-10T01:42:51.877Z,8.03
2018-08-10T01:45:21.086Z,9.50
2018-08-10T01:47:50.152Z,10.93
2018-08-10T01:50:19.226Z,10.27
2018-08-10T01:52:48.349Z,8.50
2018-08-10T01:55:17.437Z,10.20
2018-08-10T01:57:46.565Z,8.87
2018-08-10T02:00:15.578Z,11.60
2018-08-10T02:02:44.590Z,8.80
2018-08-10T02:05:14.708Z,10.43
2018-08-10T02:07:44.092Z,9.47
2018-08-10T02:10:14.704Z,10.63
2018-08-10T02:12:44.643Z,11.23
2018-08-10T02:15:16.694Z,14.50
2018-08-10T02:17:45.783Z,12.20
2018-08-10T02:20:16.411Z,12.30
2018-08-10T02:22:45.734Z,10.10
2018-08-10T02:25:16.376Z,12.93
2018-08-10T02:27:48.478Z,8.30
2018-08-10T02:30:18.846Z,11.53
2018-08-10T02:32:48.674Z,9.23
2018-08-10T02:35:17.884Z,13.03
2018-08-10T02:37:47.080Z,11.83
2018-08-10T02:40:18.635Z,12.30
2018-08-10T02:42:48.671Z,11.13
2018-08-10T02:45:18.146Z,12.03
2018-08-10T02:47:47.943Z,7.43
2018-08-10T02:50:17.024Z,13.57
2018-08-10T02:52:46.228Z,11.60
2018-08-10T02:55:15.422Z,9.73
2018-08-10T02:57:44.657Z,9.43
2018-08-10T03:00:15.079Z,8.67
2018-08-10T03:02:44.790Z,9.07
2018-08-10T03:05:13.914Z,8.73
2018-08-10T03:07:43.305Z,10.43
2018-08-10T03:10:13.507Z,9.10
2018-08-10T03:12:42.602Z,8.00
2018-08-10T03:15:14.716Z,7.23
2018-08-10T03:17:44.082Z,8.30
2018-08-10T03:20:13.353Z,9.80
2018-08-10T03:22:42.687Z,6.90
2018-08-10T03:25:13.297Z,6.10
2018-08-10T03:27:42.664Z,8.30
2018-08-10T03:30:12.704Z,7.67
2018-08-10T03:32:41.705Z,6.17
2018-08-10T03:35:10.811Z,9.77
2018-08-10T03:40:33.872Z,8.77
2018-08-10T03:43:03.120Z,7.53
2018-08-10T03:45:32.228Z,8.03
2018-08-10T03:48:01.277Z,6.53
2018-08-10T03:50:30.404Z,5.47
2018-08-10T03:52:59.480Z,8.43
2018-08-10T03:55:28.666Z,9.70
2018-08-10T03:57:57.792Z,7.57
2018-08-10T04:00:26.856Z,7.23
2018-08-10T04:02:56.054Z,7.93
2018-08-10T04:05:25.254Z,8.23
2018-08-10T04:07:54.450Z,10.17
2018-08-10T04:10:23.648Z,9.13
2018-08-10T04:12:52.729Z,7.73
2018-08-10T04:15:21.866Z,8.90
2018-08-10T04:17:51.065Z,5.37
2018-08-10T04:20:20.131Z,10.87
2018-08-10T04:22:49.254Z,8.87
2018-08-10T04:25:18.310Z,9.43
2018-08-10T04:27:47.432Z,7.53
2018-08-10T04:30:16.538Z,10.17
2018-08-10T04:32:46.946Z,7.67
2018-08-10T04:35:16.036Z,11.03
2018-08-10T04:37:45.136Z,8.03
2018-08-10T04:40:14.228Z,8.40
2018-08-10T04:42:43.308Z,7.87
2018-08-10T04:45:12.399Z,8.67
2018-08-10T04:47:47.572Z,6.70
2018-08-10T04:50:17.161Z,9.63
2018-08-10T04:52:46.318Z,7.67
2018-08-10T04:55:15.374Z,9.07
2018-08-10T04:57:44.438Z,10.93
2018-08-10T05:00:14.664Z,6.63
2018-08-10T05:02:43.836Z,10.13
2018-08-10T05:05:12.850Z,6.23
2018-08-10T05:07:42.548Z,7.87
2018-08-10T05:10:11.689Z,7.17
2018-08-10T05:12:41.059Z,8.47
2018-08-10T05:15:11.184Z,7.03
2018-08-10T05:17:40.339Z,7.00
2018-08-10T05:20:10.602Z,9.97
2018-08-10T05:22:40.403Z,7.60
2018-08-10T05:25:09.523Z,11.77
2018-08-10T05:27:38.633Z,8.00
2018-08-10T05:30:08.910Z,8.50
2018-08-10T05:32:37.969Z,7.70
2018-08-10T05:35:08.019Z,7.37
2018-08-10T05:37:37.106Z,8.63
2018-08-10T05:40:07.194Z,7.73
2018-08-10T05:42:36.247Z,9.00
2018-08-10T05:45:05.849Z,7.73
2018-08-10T05:47:34.965Z,7.90
2018-08-10T05:50:05.010Z,9.13
2018-08-10T05:52:34.245Z,8.43
2018-08-10T05:55:03.258Z,8.17
2018-08-10T05:57:32.446Z,6.40
2018-08-10T06:00:01.487Z,6.97
2018-08-10T06:02:30.526Z,9.50
2018-08-10T06:04:59.593Z,8.23
2018-08-10T06:07:28.681Z,9.37
2018-08-10T06:09:57.756Z,6.27
2018-08-10T06:12:26.822Z,9.63
2018-08-10T06:14:55.913Z,8.57
2018-08-10T06:17:25.046Z,9.57
2018-08-10T06:19:54.127Z,8.70
2018-08-10T06:22:23.274Z,8.37
2018-08-10T06:24:52.355Z,8.40
2018-08-10T06:27:21.445Z,8.13
2018-08-10T06:29:50.541Z,12.00
2018-08-10T06:32:19.789Z,7.37
2018-08-10T06:34:48.795Z,8.23
2018-08-10T06:37:17.874Z,11.17
2018-08-10T06:39:47.052Z,7.60
2018-08-10T06:42:16.061Z,8.97
2018-08-10T06:44:45.106Z,7.33
2018-08-10T06:47:14.967Z,7.90
2018-08-10T06:49:44.117Z,9.53
2018-08-10T06:52:13.285Z,10.77
2018-08-10T06:54:42.404Z,8.20
2018-08-10T06:57:11.477Z,9.23
2018-08-10T06:59:40.590Z,7.17
2018-08-10T07:02:09.768Z,8.13
2018-08-10T07:04:38.857Z,10.80
2018-08-10T07:07:08.023Z,8.60
2018-08-10T07:09:37.157Z,11.77
2018-08-10T07:12:06.472Z,8.07
2018-08-10T07:14:35.597Z,6.70
2018-08-10T07:17:04.924Z,5.53
2018-08-10T07:19:34.005Z,6.17
2018-08-10T07:22:03.049Z,7.83
2018-08-10T07:24:32.240Z,7.67
2018-08-10T07:27:01.535Z,4.53
2018-08-10T07:29:30.871Z,6.03
2018-08-10T07:31:59.996Z,6.63
2018-08-10T07:34:28.993Z,6.80
2018-08-10T07:36:58.012Z,6.23
2018-08-10T07:39:27.147Z,3.47
2018-08-10T07:41:56.245Z,8.57
2018-08-10T07:44:25.315Z,7.60
2018-08-10T07:46:54.389Z,4.87
2018-08-10T07:49:23.523Z,4.13
2018-08-10T07:51:52.653Z,9.53
2018-08-10T07:54:21.679Z,8.63
2018-08-10T07:56:50.812Z,10.77
2018-08-10T07:59:19.895Z,6.17
2018-08-10T08:01:49.083Z,5.97
2018-08-10T08:04:18.165Z,7.87
2018-08-10T08:06:47.303Z,8.77
2018-08-10T08:09:16.341Z,10.43
2018-08-10T08:11:45.389Z,6.20
2018-08-10T08:14:14.541Z,8.23
2018-08-10T08:16:43.575Z,4.80
2018-08-10T08:19:12.701Z,4.60
2018-08-10T08:22:10.009Z,6.93
2018-08-10T08:24:40.133Z,8.03
2018-08-10T08:27:09.461Z,5.07
2018-08-10T08:29:38.485Z,7.57
2018-08-10T08:32:07.804Z,6.73
2018-08-10T08:34:37.005Z,7.50
2018-08-10T08:37:06.397Z,7.53
2018-08-10T08:40:47.474Z,6.80
2018-08-10T08:44:31.738Z,7.93
2018-08-10T08:47:01.457Z,5.33
2018-08-10T08:49:30.568Z,4.20
2018-08-10T08:51:59.771Z,9.83
2018-08-10T08:55:06.959Z,6.43
2018-08-10T08:57:36.781Z,5.77
2018-08-10T09:00:11.128Z,4.27
2018-08-10T09:02:40.200Z,3.50
2018-08-10T09:05:10.106Z,13.30
2018-08-10T09:07:39.743Z,7.10
2018-08-10T09:10:14.848Z,7.77
2018-08-10T09:12:43.996Z,6.23
2018-08-10T09:15:15.262Z,6.90
2018-08-10T09:17:44.336Z,4.77
2018-08-10T09:20:13.439Z,5.93
2018-08-10T09:22:42.486Z,5.33
2018-08-10T09:25:15.420Z,3.40
2018-08-10T09:27:44.454Z,5.43
2018-08-10T09:30:15.817Z,4.30
2018-08-10T09:32:45.102Z,4.60
2018-08-10T09:35:14.678Z,5.70
2018-08-10T09:37:44.000Z,6.20
2018-08-10T09:40:17.352Z,3.70
2018-08-10T09:42:47.391Z,4.60
2018-08-10T09:45:17.377Z,2.87
2018-08-10T09:47:47.433Z,4.57
2018-08-10T09:50:17.134Z,3.67
2018-08-10T09:53:02.078Z,3.73
2018-08-10T09:55:36.517Z,4.07
2018-08-10T09:58:10.926Z,4.17
2018-08-10T10:00:45.577Z,4.60
2018-08-10T10:03:16.742Z,6.00
2018-08-10T10:05:46.261Z,6.13
2018-08-10T10:08:15.631Z,3.97
2018-08-10T10:10:45.725Z,5.03
2018-08-10T10:13:14.808Z,4.87
2018-08-10T10:15:44.165Z,5.80
2018-08-10T10:18:14.579Z,3.83
2018-08-10T10:20:44.316Z,4.83
2018-08-10T10:23:13.501Z,5.90
2018-08-10T10:25:42.592Z,3.00
2018-08-10T10:28:11.719Z,4.07
2018-08-10T10:30:40.816Z,3.10
2018-08-10T10:33:09.997Z,4.40
2018-08-10T10:35:39.981Z,4.60
2018-08-10T10:38:08.991Z,3.37
2018-08-10T10:40:38.091Z,5.27
2018-08-10T10:43:07.237Z,4.03
2018-08-10T10:45:36.342Z,2.77
2018-08-10T10:48:05.948Z,3.80
2018-08-10T10:50:34.989Z,3.43
2018-08-10T10:53:04.123Z,3.53
2018-08-10T10:55:33.327Z,3.23
2018-08-10T10:58:02.269Z,3.03
2018-08-10T11:00:31.457Z,3.83
2018-08-10T11:03:00.580Z,5.03
2018-08-10T11:05:29.672Z,2.63
2018-08-10T11:07:58.795Z,5.10
2018-08-10T11:10:27.914Z,3.03
2018-08-10T11:12:57.038Z,3.77
2018-08-10T11:15:26.130Z,3.60
2018-08-10T11:17:55.292Z,3.70
2018-08-10T11:20:24.289Z,3.30
2018-08-10T11:22:53.362Z,5.50
2018-08-10T11:25:22.709Z,7.80
2018-08-10T11:27:51.806Z,3.30
2018-08-10T11:30:21.000Z,3.00
2018-08-10T11:32:50.111Z,3.23
2018-08-10T11:35:19.258Z,4.17
2018-08-10T11:37:48.360Z,3.70
2018-08-10T11:40:18.411Z,3.73
2018-08-10T11:42:47.556Z,4.53
2018-08-10T11:45:17.776Z,4.17
2018-08-10T11:47:46.810Z,3.47
2018-08-10T11:50:15.808Z,3.90
2018-08-10T11:52:44.901Z,2.27
2018-08-10T11:55:14.956Z,2.47
2018-08-10T11:57:44.462Z,2.97
2018-08-10T12:00:14.882Z,2.40
2018-08-10T12:02:44.270Z,3.40
2018-08-10T12:05:14.034Z,4.30
2018-08-10T12:07:43.173Z,2.53
2018-08-10T12:10:12.225Z,3.63
2018-08-10T12:12:41.395Z,4.50
2018-08-10T12:15:12.296Z,3.33
2018-08-10T12:17:41.377Z,3.90
2018-08-10T12:20:11.218Z,6.40
2018-08-10T12:22:41.353Z,2.07
2018-08-10T12:25:10.495Z,6.23
2018-08-10T12:27:39.585Z,2.87
2018-08-10T12:30:10.406Z,2.33
2018-08-10T12:32:39.459Z,2.77
2018-08-10T12:35:09.103Z,4.40
2018-08-10T12:37:38.285Z,5.27
2018-08-10T12:40:07.665Z,4.53
2018-08-10T12:42:36.717Z,2.90
2018-08-10T12:45:05.737Z,4.27
2018-08-10T12:47:35.033Z,4.10
2018-08-10T12:50:04.565Z,5.47
2018-08-10T12:52:33.675Z,5.40
2018-08-10T12:55:02.862Z,3.90
2018-08-10T12:57:31.941Z,2.67
2018-08-10T13:00:00.946Z,3.10
2018-08-10T13:02:30.052Z,6.37
2018-08-10T13:04:59.733Z,7.43
2018-08-10T13:07:28.749Z,4.10
2018-08-10T13:09:57.841Z,2.43
2018-08-10T13:12:27.036Z,3.73
2018-08-10T13:14:56.075Z,4.90
2018-08-10T13:17:25.219Z,4.43
2018-08-10T13:19:54.241Z,4.33
2018-08-10T13:22:23.330Z,3.20
2018-08-10T13:24:52.533Z,2.63
2018-08-10T13:27:21.645Z,3.87
2018-08-10T13:29:50.761Z,5.63
2018-08-10T13:32:19.769Z,4.40
2018-08-10T13:34:48.789Z,3.93
2018-08-10T13:37:17.797Z,4.60
2018-08-10T13:39:46.927Z,7.83
2018-08-10T13:42:16.070Z,4.07
2018-08-10T13:44:45.161Z,3.57
2018-08-10T13:47:14.227Z,2.97
2018-08-10T13:49:43.272Z,2.83
2018-08-10T13:52:12.483Z,2.97
2018-08-10T13:54:41.625Z,2.30
2018-08-10T13:57:10.723Z,3.70
2018-08-10T13:59:39.720Z,2.27
2018-08-10T14:02:47.521Z,3.87
2018-08-10T14:05:16.597Z,3.90
2018-08-10T14:07:45.729Z,3.63
2018-08-10T14:10:15.473Z,2.60
2018-08-10T14:12:44.758Z,4.00
2018-08-10T14:15:14.073Z,2.97
2018-08-10T14:17:43.169Z,3.37
2018-08-10T14:20:12.463Z,1.97
2018-08-10T14:22:41.612Z,3.40
2018-08-10T14:25:11.393Z,2.60
2018-08-10T14:27:40.705Z,4.00
2018-08-10T14:30:13.049Z,3.03
2018-08-10T14:32:42.329Z,2.50
2018-08-10T14:35:12.582Z,5.20
2018-08-10T14:37:41.639Z,4.53
2018-08-10T14:40:12.355Z,3.63
2018-08-10T14:42:41.458Z,3.93
2018-08-10T14:45:13.946Z,4.23
2018-08-10T14:47:43.106Z,1.83
2018-08-10T14:50:13.620Z,2.03
2018-08-10T14:52:42.810Z,4.70
2018-08-10T14:55:13.827Z,6.33
2018-08-10T14:57:42.996Z,8.67
2018-08-10T15:00:14.988Z,20.37
2018-08-10T15:02:44.300Z,5.63
2018-08-10T15:05:13.400Z,1.87
2018-08-10T15:07:43.188Z,1.97
2018-08-10T15:10:13.942Z,4.37
2018-08-10T15:12:43.438Z,2.97
2018-08-10T15:15:15.037Z,5.07
2018-08-10T15:17:44.588Z,3.87
2018-08-10T15:20:16.467Z,3.07
2018-08-10T15:22:46.403Z,5.57
2018-08-10T15:25:15.550Z,1.50
2018-08-10T15:27:44.864Z,3.60
2018-08-10T15:30:16.208Z,1.57
2018-08-10T15:32:45.222Z,2.17
2018-08-10T15:35:15.861Z,5.03
2018-08-10T15:37:45.246Z,2.47
2018-08-10T15:40:16.401Z,4.87
2018-08-10T15:42:45.773Z,3.83
2018-08-10T15:45:15.912Z,5.90
2018-08-10T15:47:45.444Z,1.43
2018-08-10T15:50:14.774Z,3.00
2018-08-10T15:52:45.054Z,3.77
2018-08-10T15:55:14.793Z,3.67
2018-08-10T15:57:44.066Z,1.97
2018-08-10T16:00:17.784Z,2.10
2018-08-10T16:02:47.067Z,4.70
2018-08-10T16:05:16.275Z,2.63
2018-08-10T16:07:45.550Z,2.90
2018-08-10T16:10:14.617Z,3.87
2018-08-10T16:12:44.352Z,23.13
2018-08-10T16:15:15.763Z,1.37
2018-08-10T16:17:45.074Z,1.63
2018-08-10T16:20:16.125Z,2.80
2018-08-10T16:22:45.256Z,2.87
2018-08-10T16:25:14.402Z,1.80
2018-08-10T16:27:44.170Z,2.53
2018-08-10T16:30:14.478Z,3.17
2018-08-10T16:32:44.511Z,1.80
2018-08-10T16:35:14.637Z,2.60
2018-08-10T16:37:44.940Z,1.67
2018-08-10T16:40:15.128Z,2.27
2018-08-10T16:42:44.206Z,2.33
2018-08-10T16:45:14.189Z,3.67
2018-08-10T16:47:43.628Z,3.10
2018-08-10T16:50:14.604Z,3.43
2018-08-10T16:52:44.245Z,1.80
2018-08-10T16:55:18.179Z,2.33
2018-08-10T16:57:47.749Z,5.10
2018-08-10T17:00:18.802Z,1.90
2018-08-10T17:02:48.281Z,2.70
2018-08-10T17:05:17.362Z,1.53
2018-08-10T17:07:46.610Z,2.03
2018-08-10T17:10:15.694Z,2.03
2018-08-10T17:12:45.689Z,5.93
2018-08-10T17:15:16.667Z,2.40
2018-08-10T17:17:46.570Z,2.27
2018-08-10T17:20:16.165Z,2.07
2018-08-10T17:22:45.714Z,3.03
2018-08-10T17:25:17.708Z,2.63
2018-08-10T17:27:46.965Z,2.43
2018-08-10T17:30:17.687Z,2.97
2018-08-10T17:32:46.923Z,1.73
2018-08-10T17:35:16.776Z,2.53
2018-08-10T17:37:46.808Z,4.87
2018-08-10T17:40:16.003Z,2.67
2018-08-10T17:42:45.144Z,2.70
2018-08-10T17:45:15.861Z,1.40
2018-08-10T17:47:45.136Z,2.40
2018-08-10T17:50:17.792Z,2.63
2018-08-10T17:52:48.495Z,2.03
2018-08-10T17:55:18.632Z,3.03
2018-08-10T17:57:48.072Z,4.20
2018-08-10T18:00:18.878Z,2.80
2018-08-10T18:02:48.007Z,2.57
2018-08-10T18:05:17.834Z,3.73
2018-08-10T18:07:47.014Z,1.63
2018-08-10T18:10:16.488Z,2.23
2018-08-10T18:12:45.823Z,2.07
2018-08-10T18:17:45.348Z,6.33
2018-08-10T18:20:16.548Z,2.77
2018-08-10T18:22:46.822Z,2.10
2018-08-10T18:25:17.134Z,1.50
2018-08-10T18:27:46.434Z,2.30
2018-08-10T18:30:18.416Z,2.00
2018-08-10T18:32:48.041Z,2.73
2018-08-10T18:35:17.210Z,3.23
2018-08-10T18:37:47.218Z,1.60
2018-08-10T18:40:16.889Z,4.40
2018-08-10T18:42:47.120Z,1.70
2018-08-10T18:45:17.380Z,1.30
2018-08-10T18:47:46.534Z,3.73
2018-08-10T18:50:16.820Z,2.33
2018-08-10T18:52:45.953Z,3.83
2018-08-10T18:55:20.384Z,2.60
2018-08-10T18:57:49.818Z,1.97
2018-08-10T19:00:20.782Z,4.87
2018-08-10T19:02:50.902Z,2.03
2018-08-10T19:05:19.992Z,3.93
2018-08-10T19:07:49.468Z,2.53
2018-08-10T19:10:21.571Z,1.37
2018-08-10T19:12:50.731Z,3.40
2018-08-10T19:15:19.882Z,2.40
2018-08-10T19:17:48.964Z,1.93
2018-08-10T19:20:18.031Z,1.87
2018-08-10T19:22:47.529Z,1.97
2018-08-10T19:25:17.223Z,2.20
2018-08-10T19:27:46.305Z,2.80
2018-08-10T19:30:17.670Z,2.70
2018-08-10T19:32:47.489Z,2.50
2018-08-10T19:35:17.403Z,1.67
2018-08-10T19:37:46.534Z,2.40
2018-08-10T19:40:17.037Z,1.87
2018-08-10T19:42:46.213Z,3.27
2018-08-10T19:45:16.132Z,2.00
2018-08-10T19:47:45.239Z,4.67
2018-08-10T19:50:15.739Z,2.83
2018-08-10T19:52:44.789Z,3.60
2018-08-10T19:55:14.849Z,2.63
2018-08-10T19:57:43.899Z,3.27
2018-08-10T20:00:14.599Z,2.77
2018-08-10T20:02:46.631Z,2.87
2018-08-10T20:05:16.083Z,4.00
2018-08-10T20:07:45.385Z,2.07
2018-08-10T20:10:15.090Z,3.60
2018-08-10T20:12:44.249Z,2.43
2018-08-10T20:15:14.870Z,2.17
2018-08-10T20:17:45.077Z,1.80
2018-08-10T20:20:15.780Z,2.20
2018-08-10T20:22:45.153Z,3.17
2018-08-10T20:25:15.103Z,2.93
2018-08-10T20:27:44.302Z,2.37
2018-08-10T20:30:15.314Z,2.60
2018-08-10T20:32:44.917Z,1.97
2018-08-10T20:35:15.705Z,1.63
2018-08-10T20:37:44.783Z,3.83
2018-08-10T20:40:15.900Z,2.80
2018-08-10T20:42:45.119Z,2.13
2018-08-10T20:45:15.877Z,3.13
2018-08-10T20:47:45.025Z,4.30
2018-08-10T20:50:16.063Z,4.23
2018-08-10T20:52:45.459Z,3.07
2018-08-10T20:55:14.472Z,2.57
2018-08-10T20:57:44.307Z,4.60
2018-08-10T21:00:13.601Z,4.57
2018-08-10T21:02:43.961Z,3.77
2018-08-10T21:05:13.423Z,4.03
2018-08-10T21:07:42.831Z,2.03
2018-08-10T21:10:14.103Z,4.07
2018-08-10T21:12:43.957Z,2.47
2018-08-10T21:15:14.016Z,3.27
2018-08-10T21:17:44.433Z,3.80
2018-08-10T21:20:14.965Z,2.87
2018-08-10T21:22:44.165Z,3.40
2018-08-10T21:25:13.736Z,4.30
2018-08-10T21:27:43.481Z,2.97
2018-08-10T21:30:17.174Z,2.80
2018-08-10T21:32:46.682Z,4.90
2018-08-10T21:35:15.800Z,4.60
2018-08-10T21:37:45.127Z,2.63
2018-08-10T21:40:14.232Z,2.13
2018-08-10T21:42:43.472Z,6.67
2018-08-10T21:45:12.471Z,5.17
2018-08-10T21:47:41.510Z,3.80
2018-08-10T21:50:14.772Z,3.60
2018-08-10T21:52:44.874Z,2.47
2018-08-10T21:55:13.982Z,2.77
2018-08-10T21:57:43.086Z,2.20
2018-08-10T22:00:41.667Z,3.07
2018-08-10T22:03:11.367Z,4.70
2018-08-10T22:05:40.856Z,4.77
2018-08-10T22:08:10.901Z,4.37
2018-08-10T22:10:40.500Z,3.93
2018-08-10T22:13:13.817Z,4.30
2018-08-10T22:15:48.216Z,5.97
2018-08-10T22:18:22.683Z,4.73
2018-08-10T22:20:51.750Z,6.73
2018-08-10T22:23:20.789Z,5.23
2018-08-10T22:25:49.834Z,4.30
2018-08-10T22:28:18.971Z,4.73
2018-08-10T22:30:48.040Z,5.90
2018-08-10T22:33:17.128Z,3.83
2018-08-10T22:35:46.280Z,5.03
2018-08-10T22:38:15.381Z,5.37
2018-08-10T22:40:44.544Z,6.00
2018-08-10T22:43:13.624Z,6.60
2018-08-10T22:45:43.501Z,5.27
2018-08-10T22:48:12.680Z,9.33
2018-08-10T22:50:41.830Z,6.23
2018-08-10T22:53:10.968Z,6.57
2018-08-10T22:55:40.096Z,6.13
2018-08-10T22:58:09.198Z,6.73
2018-08-10T23:00:38.469Z,8.20
2018-08-10T23:03:07.595Z,4.97
2018-08-10T23:05:36.723Z,5.27
2018-08-10T23:08:05.975Z,7.67
2018-08-10T23:10:35.157Z,5.47
2018-08-10T23:13:04.317Z,6.67
2018-08-10T23:15:33.509Z,8.07
2018-08-10T23:18:02.605Z,6.93
2018-08-10T23:20:31.749Z,7.57
2018-08-10T23:23:00.758Z,6.53
2018-08-10T23:25:29.947Z,8.40
2018-08-10T23:27:59.051Z,4.77
2018-08-10T23:30:28.265Z,5.20
2018-08-10T23:32:57.198Z,3.97
2018-08-10T23:35:26.256Z,5.53
2018-08-10T23:37:56.219Z,7.73
2018-08-10T23:40:25.249Z,5.03
2018-08-10T23:42:54.365Z,5.20
2018-08-10T23:45:23.432Z,4.20
2018-08-10T23:47:52.465Z,4.43
2018-08-10T23:50:21.544Z,6.73
2018-08-10T23:52:50.659Z,5.13
2018-08-10T23:55:20.230Z,9.27
2018-08-10T23:57:49.323Z,7.83
